Time;durP1;ratioP1;P1;durP2;ratioP2;P2;SDS_P1;SDS_P2;PMS_P1;PMS_P2;Temp;Humidity;BMP_temperature;BMP_pressure;BME280_temperature;BME280_humidity;BME280_pressure;Samples;Min_cycle;Max_cycle;Signal;HPM_P1;HPM_P2
2021/12/25 00:01:25;;;;;;;6.18;3.67;;;8.90;90.80;;;;;;5065725;28;20021;-81
2021/12/25 00:03:53;;;;;;;5.97;3.80;;;8.90;90.80;;;;;;5064083;28;20032;-80
2021/12/25 00:06:19;;;;;;;6.18;3.60;;;8.90;90.80;;;;;;5064997;28;20563;-81
2021/12/25 00:08:45;;;;;;;6.32;3.55;;;8.90;90.80;;;;;;5063914;28;20051;-82
2021/12/25 00:11:11;;;;;;;6.35;3.63;;;8.90;90.80;;;;;;5062276;28;20063;-81
2021/12/25 00:13:38;;;;;;;6.30;3.50;;;8.90;90.80;;;;;;5061275;28;20078;-81
2021/12/25 00:16:05;;;;;;;6.78;3.90;;;8.90;90.80;;;;;;5061493;28;20071;-81
2021/12/25 00:18:30;;;;;;;5.97;3.13;;;8.90;90.80;;;;;;5060805;28;20021;-82
2021/12/25 00:20:56;;;;;;;7.47;3.45;;;8.80;90.70;;;;;;5059722;28;20021;-81
2021/12/25 00:23:23;;;;;;;6.40;3.30;;;8.90;90.70;;;;;;5060692;28;20036;-81
2021/12/25 00:25:54;;;;;;;5.47;3.03;;;8.80;90.70;;;;;;5059535;28;20049;-82
2021/12/25 00:36:17;;;;;;;5.72;3.17;;;8.90;90.70;;;;;;5059664;28;20032;-81
2021/12/25 00:38:43;;;;;;;5.28;3.20;;;8.90;90.70;;;;;;5059436;28;20022;-81
2021/12/25 00:41:15;;;;;;;5.93;3.10;;;8.90;90.70;;;;;;5060237;28;20025;-82
2021/12/25 00:43:41;;;;;;;5.95;3.20;;;8.90;90.60;;;;;;5062593;28;20082;-81
2021/12/25 00:46:07;;;;;;;6.38;3.20;;;8.90;90.60;;;;;;5062911;28;20437;-81
2021/12/25 00:48:32;;;;;;;6.40;3.47;;;8.80;90.60;;;;;;5059965;28;20028;-81
2021/12/25 00:50:58;;;;;;;6.07;2.90;;;8.80;90.60;;;;;;5060360;28;20570;-81
2021/12/25 00:53:23;;;;;;;6.25;2.83;;;8.80;90.60;;;;;;5059247;28;20099;-81
2021/12/25 00:55:49;;;;;;;5.03;2.90;;;8.90;90.60;;;;;;5059159;28;20021;-81
2021/12/25 00:58:15;;;;;;;5.80;3.13;;;8.90;90.70;;;;;;5060883;28;20171;-80
2021/12/25 01:00:42;;;;;;;6.20;3.05;;;8.90;90.60;;;;;;5058427;28;20048;-81
2021/12/25 01:03:09;;;;;;;5.85;3.05;;;8.90;90.60;;;;;;5065525;28;20021;-84
2021/12/25 01:05:35;;;;;;;5.85;2.90;;;8.80;90.60;;;;;;5068669;28;20047;-83
2021/12/25 01:08:00;;;;;;;5.13;2.72;;;8.90;90.60;;;;;;5069569;28;20494;-82
2021/12/25 01:10:26;;;;;;;4.88;2.83;;;8.90;90.60;;;;;;5068307;28;20050;-82
2021/12/25 01:15:24;;;;;;;5.57;2.83;;;8.90;90.60;;;;;;5068332;28;20025;-81
2021/12/25 01:23:15;;;;;;;5.65;3.20;;;8.80;90.50;;;;;;5066989;28;20036;-81
2021/12/25 01:31:24;;;;;;;5.85;2.90;;;8.80;90.50;;;;;;5065331;28;20048;-81
2021/12/25 01:39:11;;;;;;;4.57;2.40;;;8.80;90.50;;;;;;5063571;28;20060;-81
2021/12/25 01:49:32;;;;;;;5.60;2.67;;;8.80;90.50;;;;;;5061547;28;20036;-80
2021/12/25 01:51:57;;;;;;;5.40;2.60;;;8.90;90.50;;;;;;5059609;28;20390;-81
2021/12/25 01:54:23;;;;;;;5.72;2.60;;;8.80;90.50;;;;;;5059139;28;20086;-81
2021/12/25 01:56:49;;;;;;;6.07;2.53;;;8.80;90.50;;;;;;5060117;28;20025;-81
2021/12/25 01:59:15;;;;;;;5.50;2.30;;;8.80;90.50;;;;;;5061363;28;20028;-81
2021/12/25 02:01:40;;;;;;;4.88;2.40;;;8.80;90.50;;;;;;5058877;28;20092;-80
2021/12/25 02:04:06;;;;;;;4.93;2.22;;;8.90;90.50;;;;;;5058536;28;20508;-81
2021/12/25 02:06:32;;;;;;;4.63;2.28;;;8.80;90.50;;;;;;5058517;28;20021;-81
2021/12/25 02:08:57;;;;;;;4.65;2.22;;;8.80;90.50;;;;;;5057426;28;20029;-81
2021/12/25 02:11:24;;;;;;;5.47;2.40;;;8.90;90.50;;;;;;5057794;28;20025;-81
2021/12/25 02:13:50;;;;;;;4.55;2.33;;;8.90;90.50;;;;;;5057261;28;20021;-82
2021/12/25 02:16:18;;;;;;;5.70;2.25;;;8.80;90.50;;;;;;5057724;28;20029;-81
2021/12/25 02:19:08;;;;;;;4.20;1.90;;;8.90;90.50;;;;;;5059427;28;20514;-81
2021/12/25 02:21:37;;;;;;;4.72;1.92;;;8.80;90.50;;;;;;5057010;28;20033;-81
2021/12/25 02:24:05;;;;;;;4.65;2.22;;;8.90;90.50;;;;;;5056312;28;20505;-81
2021/12/25 02:26:32;;;;;;;4.15;2.10;;;8.80;90.40;;;;;;5056442;28;20036;-81
2021/12/25 02:28:57;;;;;;;3.90;2.03;;;8.80;90.40;;;;;;5058327;28;20029;-81
2021/12/25 02:31:24;;;;;;;3.38;1.70;;;8.90;90.40;;;;;;5058240;28;20040;-81
2021/12/25 02:33:50;;;;;;;3.58;1.90;;;8.80;90.40;;;;;;5055743;28;20029;-81
2021/12/25 02:36:16;;;;;;;4.30;1.90;;;8.80;90.40;;;;;;5055930;28;20032;-81
2021/12/25 02:38:43;;;;;;;5.45;2.10;;;8.80;90.40;;;;;;5055281;28;20021;-81
2021/12/25 02:41:09;;;;;;;5.18;2.15;;;8.90;90.50;;;;;;5055057;28;20116;-81
2021/12/25 02:43:35;;;;;;;3.67;1.98;;;8.80;90.40;;;;;;5055201;28;20404;-81
2021/12/25 02:46:03;;;;;;;4.55;1.70;;;8.90;90.50;;;;;;5056596;28;20052;-81
2021/12/25 02:48:30;;;;;;;3.70;1.85;;;8.80;90.40;;;;;;5056969;28;20071;-81
2021/12/25 02:50:56;;;;;;;4.07;1.77;;;8.80;90.40;;;;;;5055148;28;20021;-81
2021/12/25 02:53:22;;;;;;;3.60;1.80;;;8.80;90.40;;;;;;5054559;28;20040;-81
2021/12/25 02:55:48;;;;;;;4.40;1.80;;;8.90;90.40;;;;;;5056284;28;20534;-81
2021/12/25 02:58:15;;;;;;;4.05;1.77;;;8.80;90.40;;;;;;5055101;28;20025;-81
2021/12/25 03:00:50;;;;;;;3.40;1.67;;;8.90;90.40;;;;;;5057083;28;20467;-82
2021/12/25 03:03:16;;;;;;;3.17;1.70;;;8.80;90.40;;;;;;5067429;28;20024;-81
2021/12/25 03:05:41;;;;;;;3.17;1.63;;;8.80;90.40;;;;;;5068639;28;20021;-81
2021/12/25 03:08:09;;;;;;;4.82;1.60;;;8.80;90.60;;;;;;5067017;28;20090;-81
2021/12/25 03:10:36;;;;;;;2.83;1.63;;;8.80;90.40;;;;;;5066254;28;20025;-82
2021/12/25 03:15:46;;;;;;;3.42;1.50;;;8.80;90.30;;;;;;5066837;28;20028;-82
2021/12/25 03:18:17;;;;;;;3.05;1.70;;;8.80;90.30;;;;;;5066298;28;20021;-82
2021/12/25 03:20:45;;;;;;;3.67;1.50;;;8.80;90.30;;;;;;5065059;28;20020;-81
2021/12/25 03:23:19;;;;;;;2.95;1.50;;;8.80;90.30;;;;;;5063865;28;20017;-81
2021/12/25 03:25:47;;;;;;;2.80;1.42;;;8.80;90.30;;;;;;5062613;28;20056;-81
2021/12/25 03:28:14;;;;;;;4.35;1.58;;;8.80;90.30;;;;;;5062568;28;20482;-81
2021/12/25 03:30:39;;;;;;;4.88;1.70;;;8.80;90.30;;;;;;5061648;28;20032;-81
2021/12/25 03:33:07;;;;;;;4.18;1.60;;;8.80;90.20;;;;;;5060397;28;20025;-82
2021/12/25 03:35:34;;;;;;;3.80;1.50;;;8.80;90.20;;;;;;5060545;28;20459;-81
2021/12/25 03:38:01;;;;;;;3.67;1.80;;;8.80;90.20;;;;;;5060263;28;20494;-81
2021/12/25 03:40:26;;;;;;;2.90;1.42;;;8.80;90.20;;;;;;5061841;28;20036;-81
2021/12/25 03:42:52;;;;;;;2.40;1.23;;;8.80;90.20;;;;;;5059465;28;20108;-81
2021/12/25 03:45:18;;;;;;;3.47;1.40;;;8.80;90.20;;;;;;5053846;28;20493;-81
2021/12/25 03:47:46;;;;;;;3.03;1.48;;;8.80;90.20;;;;;;5055469;28;20049;-80
2021/12/25 03:58:11;;;;;;;3.45;1.38;;;8.80;90.20;;;;;;5039409;28;20167;-81
2021/12/25 04:00:37;;;;;;;2.55;1.25;;;8.80;90.20;;;;;;5038878;28;20031;-81
2021/12/25 04:03:08;;;;;;;2.67;1.40;;;8.80;90.20;;;;;;5037525;28;20585;-80
2021/12/25 04:05:36;;;;;;;2.83;1.50;;;8.80;90.20;;;;;;5038171;28;20487;-82
2021/12/25 04:08:11;;;;;;;3.10;1.40;;;8.80;90.20;;;;;;5036505;28;20031;-80
2021/12/25 04:10:43;;;;;;;2.80;1.30;;;8.80;90.20;;;;;;5035984;28;20022;-80
2021/12/25 04:13:15;;;;;;;3.15;1.30;;;8.80;90.10;;;;;;5043886;28;20030;-82
2021/12/25 04:15:41;;;;;;;3.10;1.20;;;8.80;90.10;;;;;;5046026;28;20033;-81
2021/12/25 04:18:07;;;;;;;3.40;1.83;;;8.80;90.10;;;;;;5047618;28;20036;-82
2021/12/25 04:20:33;;;;;;;2.45;1.30;;;8.80;90.10;;;;;;5061126;28;20029;-81
2021/12/25 04:23:06;;;;;;;2.63;1.33;;;8.80;90.10;;;;;;5044705;28;20025;-81
2021/12/25 04:25:35;;;;;;;3.42;1.40;;;8.80;90.00;;;;;;5044767;28;20086;-81
2021/12/25 04:28:10;;;;;;;2.20;1.42;;;8.80;90.00;;;;;;5042832;28;20026;-80
2021/12/25 05:05:24;;;;;;;2.97;1.40;;;8.80;89.80;;;;;;5038986;28;20025;-81
2021/12/25 05:07:49;;;;;;;2.88;1.30;;;8.80;89.70;;;;;;5036977;28;20049;-81
2021/12/25 05:10:15;;;;;;;2.45;1.38;;;8.80;89.80;;;;;;5036945;28;20509;-81
2021/12/25 05:12:41;;;;;;;2.35;1.30;;;8.80;89.80;;;;;;5036384;28;20022;-81
2021/12/25 05:15:07;;;;;;;3.08;1.27;;;8.80;89.80;;;;;;5037108;28;20105;-81
2021/12/25 05:17:33;;;;;;;3.08;1.30;;;8.80;89.70;;;;;;5035813;28;20089;-81
2021/12/25 05:19:59;;;;;;;2.42;1.40;;;8.80;89.80;;;;;;5037508;28;20029;-81
2021/12/25 05:22:25;;;;;;;2.38;1.20;;;8.80;89.80;;;;;;5052232;28;20395;-81
2021/12/25 05:24:51;;;;;;;3.42;1.20;;;8.80;89.80;;;;;;5052281;28;20112;-81
2021/12/25 05:27:18;;;;;;;2.15;1.38;;;8.80;89.80;;;;;;5037288;28;20029;-81
2021/12/25 05:29:46;;;;;;;3.15;1.35;;;8.80;89.70;;;;;;5040841;28;20028;-80
2021/12/25 05:32:13;;;;;;;2.78;1.20;;;8.80;89.70;;;;;;5055644;28;20633;-81
2021/12/25 05:34:39;;;;;;;2.80;1.20;;;8.80;89.70;;;;;;5038252;28;20057;-81
2021/12/25 05:37:05;;;;;;;2.60;1.20;;;8.80;89.60;;;;;;5037925;28;20022;-81
2021/12/25 05:39:31;;;;;;;2.78;1.27;;;8.80;89.60;;;;;;5038859;28;20026;-81
2021/12/25 05:41:57;;;;;;;3.20;1.20;;;8.80;89.60;;;;;;5038602;28;20709;-81
2021/12/25 05:44:22;;;;;;;2.08;1.13;;;8.80;89.50;;;;;;5051708;28;20039;-81
2021/12/25 05:46:48;;;;;;;2.72;1.30;;;8.80;89.50;;;;;;5060175;28;20517;-80
2021/12/25 05:49:14;;;;;;;3.22;1.10;;;8.80;89.50;;;;;;5060442;28;20029;-81
2021/12/25 05:51:40;;;;;;;2.17;1.17;;;8.80;89.50;;;;;;5060159;28;20064;-81
2021/12/25 05:54:06;;;;;;;2.17;1.10;;;8.80;89.50;;;;;;5057640;28;20128;-80
2021/12/25 05:56:31;;;;;;;2.17;1.02;;;8.80;89.50;;;;;;5058918;28;20549;-80
2021/12/25 05:58:57;;;;;;;3.08;1.15;;;8.80;89.50;;;;;;5064673;28;20032;-81
2021/12/25 06:01:23;;;;;;;1.95;1.00;;;8.80;89.40;;;;;;5068477;28;20023;-81
2021/12/25 06:03:48;;;;;;;2.20;1.00;;;8.80;89.40;;;;;;5057890;28;20385;-79
2021/12/25 06:06:14;;;;;;;2.58;1.00;;;8.80;89.30;;;;;;5058040;28;20115;-80
2021/12/25 06:08:39;;;;;;;2.55;1.15;;;8.70;89.30;;;;;;5057841;28;20032;-80
2021/12/25 06:11:05;;;;;;;2.15;1.00;;;8.80;89.30;;;;;;5061559;28;20028;-82
2021/12/25 06:13:31;;;;;;;3.10;1.45;;;8.80;89.30;;;;;;5068102;28;20035;-81
2021/12/25 06:15:57;;;;;;;1.90;0.95;;;8.80;89.40;;;;;;5068387;28;20034;-81
2021/12/25 06:18:23;;;;;;;2.70;1.10;;;8.80;89.40;;;;;;5067624;28;20086;-81
2021/12/25 06:20:48;;;;;;;2.00;0.93;;;8.80;89.40;;;;;;5066735;28;20029;-81
2021/12/25 06:23:14;;;;;;;1.77;1.00;;;8.80;89.40;;;;;;5067887;28;20029;-82
2021/12/25 06:25:40;;;;;;;2.83;1.00;;;8.80;89.30;;;;;;5067308;28;20054;-82
2021/12/25 06:28:06;;;;;;;2.35;0.88;;;8.70;89.30;;;;;;5065510;28;20029;-81
2021/12/25 06:30:31;;;;;;;2.50;0.95;;;8.70;89.20;;;;;;5066043;28;20092;-81
2021/12/25 06:32:57;;;;;;;1.90;1.00;;;8.80;89.30;;;;;;5061755;28;20039;-82
2021/12/25 06:35:22;;;;;;;1.88;0.90;;;8.70;89.20;;;;;;5060632;28;20021;-81
2021/12/25 06:37:48;;;;;;;2.50;1.17;;;8.80;89.30;;;;;;5062442;28;20021;-81
2021/12/25 06:40:18;;;;;;;1.77;0.82;;;8.70;89.10;;;;;;5063382;28;20036;-80
2021/12/25 06:42:45;;;;;;;1.35;0.77;;;8.70;89.10;;;;;;5063625;28;20033;-81
2021/12/25 06:45:10;;;;;;;1.63;0.80;;;8.70;89.00;;;;;;5063318;28;20120;-81
2021/12/25 06:47:36;;;;;;;1.70;0.77;;;8.80;89.00;;;;;;5060904;28;20033;-80
2021/12/25 06:50:04;;;;;;;3.45;0.80;;;8.80;89.00;;;;;;5060796;28;20497;-80
2021/12/25 06:52:29;;;;;;;3.08;0.82;;;8.70;88.00;;;;;;5059270;28;20028;-80
2021/12/25 06:54:55;;;;;;;3.38;1.02;;;8.70;88.10;;;;;;5060262;28;20461;-81
2021/12/25 06:57:20;;;;;;;2.22;0.90;;;8.70;88.30;;;;;;5058796;28;20128;-80
2021/12/25 06:59:46;;;;;;;2.53;0.95;;;8.70;87.20;;;;;;5059317;28;20049;-80
2021/12/25 07:02:12;;;;;;;3.83;0.95;;;8.70;85.10;;;;;;5059163;28;20025;-80
2021/12/25 07:04:38;;;;;;;1.77;0.80;;;8.70;82.60;;;;;;5058381;28;20059;-81
2021/12/25 07:07:04;;;;;;;4.13;1.20;;;8.70;84.60;;;;;;5059769;28;20025;-80
2021/12/25 07:09:29;;;;;;;4.40;1.10;;;8.70;84.90;;;;;;5059743;28;20021;-80
2021/12/25 07:11:56;;;;;;;5.28;1.13;;;8.60;85.70;;;;;;5059929;28;20032;-80
2021/12/25 07:14:22;;;;;;;8.15;1.10;;;8.70;86.30;;;;;;5058780;28;20025;-81
2021/12/25 07:16:47;;;;;;;6.00;1.30;;;8.70;86.70;;;;;;5061617;28;20078;-80
2021/12/25 07:19:15;;;;;;;5.35;1.15;;;8.70;87.00;;;;;;5061417;28;20024;-80
2021/12/25 07:21:42;;;;;;;4.32;1.10;;;8.70;87.20;;;;;;5059422;28;20035;-80
2021/12/25 07:24:09;;;;;;;4.10;1.20;;;8.70;87.30;;;;;;5060898;28;20047;-80
2021/12/25 07:26:36;;;;;;;4.05;1.00;;;8.70;87.40;;;;;;5068137;28;20041;-81
2021/12/25 07:29:01;;;;;;;4.45;1.17;;;8.70;87.50;;;;;;5067644;28;20055;-80
2021/12/25 07:31:27;;;;;;;4.65;1.20;;;8.70;87.60;;;;;;5067013;28;20048;-81
2021/12/25 07:33:52;;;;;;;4.95;1.00;;;8.70;87.70;;;;;;5065669;28;20025;-80
2021/12/25 07:36:18;;;;;;;2.92;0.93;;;8.70;87.80;;;;;;5066861;28;20028;-80
2021/12/25 07:38:43;;;;;;;2.92;0.85;;;8.70;87.90;;;;;;5066370;28;20028;-81
2021/12/25 07:41:09;;;;;;;3.33;1.10;;;8.70;87.90;;;;;;5064204;28;20519;-81
2021/12/25 07:43:34;;;;;;;4.68;1.00;;;8.70;87.90;;;;;;5095990;22;20369;-76
2021/12/25 07:46:00;;;;;;;2.78;0.90;;;8.70;87.90;;;;;;5092252;28;20024;-76
2021/12/25 07:48:26;;;;;;;4.45;1.00;;;8.70;88.00;;;;;;5092466;28;20074;-78
2021/12/25 07:50:52;;;;;;;2.42;1.02;;;8.70;88.00;;;;;;5091824;28;20024;-78
2021/12/25 07:53:19;;;;;;;2.75;1.00;;;8.70;88.00;;;;;;5093580;28;20020;-77
2021/12/25 07:55:48;;;;;;;2.35;1.10;;;8.70;88.00;;;;;;5090990;28;20508;-76
2021/12/25 07:58:16;;;;;;;3.80;1.10;;;8.70;87.90;;;;;;5090123;28;20035;-79
2021/12/25 08:00:41;;;;;;;3.13;1.05;;;8.70;87.90;;;;;;5087936;28;20405;-80
2021/12/25 08:03:07;;;;;;;2.58;0.90;;;8.70;87.90;;;;;;5092720;28;20020;-78
2021/12/25 08:05:33;;;;;;;1.45;0.70;;;8.70;87.90;;;;;;5093464;28;20741;-79
2021/12/25 08:07:59;;;;;;;2.42;0.90;;;8.70;88.00;;;;;;5093419;28;20024;-78
2021/12/25 08:10:25;;;;;;;3.20;1.02;;;8.70;87.90;;;;;;5092132;28;20059;-80
2021/12/25 08:12:56;;;;;;;2.78;1.08;;;8.70;88.00;;;;;;5094212;28;20020;-78
2021/12/25 08:15:25;;;;;;;2.42;1.05;;;8.70;88.00;;;;;;5091351;28;20051;-77
2021/12/25 08:17:51;;;;;;;2.70;0.93;;;8.70;87.90;;;;;;5076671;28;20033;-77
2021/12/25 08:20:18;;;;;;;2.15;0.93;;;8.70;87.90;;;;;;5074149;28;20111;-77
2021/12/25 08:22:44;;;;;;;1.60;0.85;;;8.70;87.90;;;;;;5072374;28;20028;-78
2021/12/25 08:25:12;;;;;;;1.80;0.98;;;8.70;87.80;;;;;;5088013;28;20081;-78
2021/12/25 08:27:39;;;;;;;2.25;0.90;;;8.70;87.80;;;;;;5092183;28;20024;-77
2021/12/25 08:30:08;;;;;;;2.85;1.00;;;8.70;87.70;;;;;;5091092;28;20032;-78
2021/12/25 08:32:34;;;;;;;3.17;0.98;;;8.70;87.70;;;;;;5092240;28;20031;-79
2021/12/25 08:35:00;;;;;;;2.45;0.80;;;8.70;87.60;;;;;;5092215;28;20401;-76
2021/12/25 08:37:26;;;;;;;3.22;1.00;;;8.80;87.60;;;;;;5091386;28;20028;-79
2021/12/25 08:39:53;;;;;;;2.95;1.25;;;8.80;87.60;;;;;;5090837;28;20127;-78
2021/12/25 08:42:19;;;;;;;2.45;1.00;;;8.80;87.50;;;;;;5091356;28;20096;-79
2021/12/25 08:47:20;;;;;;;2.47;0.98;;;8.80;87.30;;;;;;5092696;28;20829;-78
2021/12/25 08:49:47;;;;;;;2.65;0.90;;;8.80;87.20;;;;;;5091001;28;20035;-76
2021/12/25 08:52:15;;;;;;;2.80;1.15;;;8.80;87.20;;;;;;5091807;28;20124;-77
2021/12/25 08:54:42;;;;;;;2.13;0.95;;;8.90;87.20;;;;;;5093314;28;20036;-77
2021/12/25 08:57:09;;;;;;;2.10;1.00;;;8.90;87.10;;;;;;5091870;28;20016;-78
2021/12/25 08:59:36;;;;;;;2.70;0.90;;;8.90;87.00;;;;;;5091731;28;20066;-80
2021/12/25 09:02:06;;;;;;;6.35;1.20;;;8.90;87.00;;;;;;5092771;28;20028;-78
2021/12/25 09:04:32;;;;;;;3.92;1.08;;;8.90;86.90;;;;;;5095382;28;20028;-78
2021/12/25 09:06:58;;;;;;;1.60;0.90;;;9.00;86.80;;;;;;5094899;28;20424;-83
2021/12/25 09:09:23;;;;;;;3.28;0.85;;;8.90;86.70;;;;;;5093864;28;20024;-76
2021/12/25 09:11:49;;;;;;;3.25;0.85;;;8.90;86.70;;;;;;5093353;28;20127;-77
2021/12/25 09:14:14;;;;;;;3.78;1.10;;;9.00;86.70;;;;;;5092795;28;20020;-76
2021/12/25 09:16:40;;;;;;;3.88;1.02;;;9.00;86.60;;;;;;5094479;28;20032;-81
2021/12/25 09:19:06;;;;;;;5.20;1.00;;;9.00;86.60;;;;;;5093066;28;20627;-80
2021/12/25 09:21:32;;;;;;;3.20;1.02;;;9.00;86.60;;;;;;5093191;28;20091;-76
2021/12/25 09:23:58;;;;;;;3.22;0.93;;;9.00;86.60;;;;;;5092780;28;20397;-76
2021/12/25 09:26:24;;;;;;;7.80;1.20;;;9.00;87.10;;;;;;5094210;28;20020;-77
2021/12/25 09:28:49;;;;;;;3.78;1.02;;;9.00;86.60;;;;;;5092974;28;20469;-76
2021/12/25 09:31:15;;;;;;;1.90;0.80;;;9.00;86.60;;;;;;5093884;28;20016;-77
2021/12/25 09:33:41;;;;;;;4.60;1.10;;;9.00;86.60;;;;;;5093455;28;20579;-79
2021/12/25 09:36:07;;;;;;;2.17;0.90;;;9.00;86.60;;;;;;5094997;28;20020;-77
2021/12/25 09:38:34;;;;;;;3.28;1.10;;;9.00;86.50;;;;;;5093457;28;20081;-80
2021/12/25 09:41:00;;;;;;;2.95;0.93;;;9.00;86.50;;;;;;5093162;28;20024;-77
2021/12/25 09:43:26;;;;;;;3.10;0.95;;;9.00;86.40;;;;;;5091877;28;20039;-77
2021/12/25 09:45:53;;;;;;;3.85;1.00;;;9.00;86.30;;;;;;5093485;28;20028;-77
2021/12/25 09:48:19;;;;;;;2.35;1.10;;;9.00;84.70;;;;;;5092830;28;20056;-76
2021/12/25 09:50:46;;;;;;;2.47;1.13;;;9.00;84.40;;;;;;5093026;28;20063;-78
2021/12/25 09:53:14;;;;;;;4.38;1.10;;;9.00;84.80;;;;;;5092621;28;20411;-77
2021/12/25 09:55:40;;;;;;;4.00;1.10;;;9.00;85.10;;;;;;5091430;28;20024;-79
2021/12/25 09:58:06;;;;;;;3.35;0.90;;;9.00;85.40;;;;;;5093602;28;20087;-77
2021/12/25 10:00:35;;;;;;;2.40;1.08;;;9.00;85.50;;;;;;5093034;28;20028;-78
2021/12/25 10:03:00;;;;;;;4.07;1.05;;;9.00;85.60;;;;;;5092180;28;20122;-76
2021/12/25 10:05:31;;;;;;;3.45;0.80;;;9.00;85.50;;;;;;5092429;28;20125;-77
2021/12/25 10:08:10;;;;;;;2.38;1.00;;;9.00;85.40;;;;;;5091803;28;20028;-78
2021/12/25 10:10:54;;;;;;;3.75;1.25;;;9.10;85.30;;;;;;5087603;28;20402;-82
2021/12/25 10:13:24;;;;;;;5.20;1.05;;;9.10;82.70;;;;;;5069240;28;20034;-76
2021/12/25 10:15:52;;;;;;;3.13;1.20;;;9.10;80.70;;;;;;5070207;28;20510;-76
2021/12/25 10:18:30;;;;;;;3.20;1.05;;;9.20;81.70;;;;;;5070102;28;20032;-79
2021/12/25 10:20:56;;;;;;;3.70;1.00;;;9.20;81.20;;;;;;5070123;28;20028;-77
2021/12/25 10:23:28;;;;;;;3.50;1.00;;;9.30;81.40;;;;;;5070562;28;20031;-78
2021/12/25 10:26:00;;;;;;;5.15;1.15;;;9.30;82.10;;;;;;5070296;28;20086;-76
2021/12/25 10:28:28;;;;;;;7.97;1.33;;;9.30;81.50;;;;;;5070124;28;20017;-75
2021/12/25 10:30:54;;;;;;;5.30;1.30;;;9.30;81.70;;;;;;5070224;28;20024;-76
2021/12/25 10:33:28;;;;;;;7.05;1.10;;;9.30;82.50;;;;;;5071219;28;20032;-78
2021/12/25 10:35:55;;;;;;;6.82;1.10;;;9.40;81.70;;;;;;5070507;28;20493;-76
2021/12/25 10:38:24;;;;;;;9.63;1.40;;;9.40;80.90;;;;;;5071369;28;20032;-77
2021/12/25 10:41:06;;;;;;;8.52;1.50;;;9.20;69.30;;;;;;5070114;28;20477;-76
2021/12/25 10:43:35;;;;;;;7.65;1.40;;;9.20;69.20;;;;;;5070209;28;20043;-77
2021/12/25 10:46:02;;;;;;;7.50;1.52;;;9.20;71.40;;;;;;5071528;28;20469;-77
2021/12/25 10:48:29;;;;;;;11.23;1.23;;;9.20;73.90;;;;;;5069878;28;20444;-77
2021/12/25 10:50:56;;;;;;;4.05;1.20;;;9.30;75.20;;;;;;5071855;28;20035;-79
2021/12/25 10:53:29;;;;;;;9.95;1.30;;;9.30;76.50;;;;;;5072861;28;20032;-79
2021/12/25 10:56:15;;;;;;;4.53;0.98;;;9.40;76.90;;;;;;5072335;28;20098;-77
2021/12/25 10:58:42;;;;;;;8.77;1.20;;;9.40;78.10;;;;;;5069962;28;20030;-78
2021/12/25 11:01:10;;;;;;;7.70;1.20;;;9.40;78.60;;;;;;5073653;28;20039;-80
2021/12/25 11:03:38;;;;;;;4.60;1.42;;;9.40;79.00;;;;;;5073235;28;20035;-77
2021/12/25 11:06:07;;;;;;;4.00;1.10;;;9.40;79.20;;;;;;5072131;28;20029;-78
2021/12/25 11:08:35;;;;;;;5.07;1.00;;;9.40;79.60;;;;;;5072223;28;20054;-78
2021/12/25 11:11:13;;;;;;;3.17;1.30;;;9.50;79.70;;;;;;5071994;28;20025;-77
2021/12/25 11:13:51;;;;;;;3.47;0.90;;;9.50;79.80;;;;;;5072853;28;20466;-77
2021/12/25 11:16:30;;;;;;;9.27;1.65;;;9.50;79.90;;;;;;5071905;28;20032;-79
2021/12/25 11:19:05;;;;;;;4.78;1.30;;;9.50;73.80;;;;;;5071597;28;20042;-77
2021/12/25 11:21:33;;;;;;;4.45;1.60;;;9.50;70.00;;;;;;5072936;28;20123;-79
2021/12/25 11:24:06;;;;;;;6.10;1.10;;;9.40;70.30;;;;;;5071579;28;20739;-78
2021/12/25 11:26:33;;;;;;;6.22;1.13;;;9.50;72.00;;;;;;5070152;28;20477;-77
2021/12/25 11:28:58;;;;;;;4.43;1.65;;;9.50;73.50;;;;;;5069997;28;20111;-79
2021/12/25 11:31:24;;;;;;;4.47;1.20;;;9.50;74.80;;;;;;5071389;28;20458;-78
2021/12/25 11:33:50;;;;;;;5.43;1.30;;;9.60;75.90;;;;;;5070062;28;20029;-77
2021/12/25 11:36:17;;;;;;;5.78;1.25;;;9.60;76.30;;;;;;5070716;28;20020;-75
2021/12/25 11:38:44;;;;;;;6.45;1.27;;;9.70;76.60;;;;;;5075115;28;20083;-75
2021/12/25 11:41:11;;;;;;;4.30;1.10;;;9.70;76.10;;;;;;5072222;28;20032;-80
2021/12/25 11:43:40;;;;;;;5.50;1.35;;;9.70;75.50;;;;;;5069357;28;20044;-79
2021/12/25 11:46:08;;;;;;;5.50;1.20;;;9.80;75.30;;;;;;5069622;28;20028;-80
2021/12/25 11:48:34;;;;;;;5.07;1.20;;;9.80;75.80;;;;;;5070285;28;20033;-77
2021/12/25 11:51:00;;;;;;;5.00;1.20;;;9.80;75.50;;;;;;5068997;28;20036;-77
2021/12/25 11:54:30;;;;;;;21.40;2.05;;;9.90;75.80;;;;;;5068416;28;20394;-78
2021/12/25 11:56:41;;;;;;;21.50;2.40;;;9.90;77.00;;;;;;5059004;28;20085;-77
2021/12/25 11:59:13;;;;;;;20.95;2.30;;;10.00;78.00;;;;;;5069393;28;20032;-78
2021/12/25 12:01:48;;;;;;;;;;;10.10;80.10;;;;;;5071435;28;20037;-77
2021/12/25 12:04:26;;;;;;;15.18;1.90;;;10.10;80.50;;;;;;5068703;28;19908;-79
2021/12/25 12:07:01;;;;;;;13.00;1.92;;;10.20;79.70;;;;;;5070307;28;20074;-78
2021/12/25 12:09:48;;;;;;;12.73;1.60;;;10.20;79.20;;;;;;5068422;28;20047;-76
2021/12/25 12:12:24;;;;;;;17.63;2.03;;;10.30;79.30;;;;;;5068317;28;20032;-80
2021/12/25 12:15:25;;;;;;;11.52;1.98;;;10.30;79.60;;;;;;5111045;28;20034;-78
2021/12/25 12:17:51;;;;;;;10.38;1.50;;;10.30;80.40;;;;;;5031876;28;20031;-81
2021/12/25 12:20:38;;;;;;;10.73;1.88;;;10.30;80.70;;;;;;5097234;28;20151;-79
2021/12/25 12:23:37;;;;;;;7.95;1.55;;;10.40;81.20;;;;;;5108688;28;20370;-80
2021/12/25 12:26:07;;;;;;;14.23;1.60;;;10.40;82.40;;;;;;5109618;28;20023;-78
2021/12/25 12:29:02;;;;;;;7.38;1.30;;;10.40;82.80;;;;;;5107472;28;20062;-79
2021/12/25 12:31:41;;;;;;;9.70;1.60;;;10.50;83.40;;;;;;5095741;28;20412;-79
2021/12/25 12:34:29;;;;;;;7.30;1.75;;;10.60;83.20;;;;;;5080853;28;20103;-83
2021/12/25 12:37:13;;;;;;;8.00;1.70;;;10.60;81.60;;;;;;5092127;28;20033;-82
2021/12/25 12:40:07;;;;;;;4.97;1.38;;;10.80;83.10;;;;;;5093716;28;20700;-80
2021/12/25 12:42:44;;;;;;;7.65;1.73;;;10.80;84.00;;;;;;5092668;28;20130;-82
2021/12/25 12:45:19;;;;;;;4.95;1.23;;;10.90;84.90;;;;;;5095171;28;20036;-80
2021/12/25 12:48:07;;;;;;;5.68;1.10;;;11.00;84.20;;;;;;5091994;28;20027;-80
2021/12/25 12:50:34;;;;;;;5.55;1.40;;;11.00;85.90;;;;;;5071982;28;20041;-82
2021/12/25 12:53:02;;;;;;;6.97;1.38;;;11.00;86.40;;;;;;5074642;28;20020;-80
2021/12/25 12:55:31;;;;;;;9.88;1.33;;;11.10;86.70;;;;;;5070937;28;20024;-80
2021/12/25 12:58:06;;;;;;;5.47;1.10;;;11.20;87.70;;;;;;5071170;28;20032;-80
2021/12/25 13:00:32;;;;;;;7.45;1.40;;;11.30;88.30;;;;;;5071502;28;20032;-79
2021/12/25 13:02:58;;;;;;;7.40;1.13;;;11.30;88.30;;;;;;5107453;27;20035;-79
2021/12/25 13:05:29;;;;;;;10.25;1.60;;;11.40;89.10;;;;;;5111697;28;20432;-80
2021/12/25 13:07:56;;;;;;;12.50;1.88;;;11.50;90.10;;;;;;5111981;28;20023;-80
2021/12/25 13:10:43;;;;;;;6.18;1.25;;;11.50;90.10;;;;;;5111908;28;20449;-80
2021/12/25 13:13:16;;;;;;;8.43;1.52;;;11.50;90.30;;;;;;5111913;28;20069;-81
2021/12/25 13:15:44;;;;;;;6.25;1.20;;;11.60;90.70;;;;;;5111507;28;20055;-80
2021/12/25 13:18:11;;;;;;;7.75;1.45;;;11.60;90.80;;;;;;5111702;28;20100;-79
2021/12/25 13:20:42;;;;;;;6.50;1.70;;;11.60;90.90;;;;;;5098377;28;20034;-80
2021/12/25 13:23:16;;;;;;;8.48;1.40;;;11.60;90.80;;;;;;5091082;28;20034;-81
2021/12/25 13:26:03;;;;;;;7.68;1.70;;;11.60;91.00;;;;;;5091172;28;20028;-83
2021/12/25 13:28:31;;;;;;;9.02;1.85;;;11.60;91.00;;;;;;5091542;28;20028;-82
2021/12/25 13:31:00;;;;;;;7.32;1.55;;;11.60;91.10;;;;;;5091181;28;20047;-83
2021/12/25 13:33:30;;;;;;;9.38;1.55;;;11.60;91.00;;;;;;5091674;28;20114;-81
2021/12/25 13:36:12;;;;;;;12.13;1.70;;;11.60;89.80;;;;;;5090925;28;20166;-82
2021/12/25 13:38:46;;;;;;;10.57;1.60;;;11.50;88.50;;;;;;5090520;28;20024;-83
2021/12/25 13:41:13;;;;;;;12.77;1.50;;;11.40;86.80;;;;;;5092443;28;20028;-81
2021/12/25 13:43:39;;;;;;;8.18;1.23;;;11.30;85.30;;;;;;5091247;28;20035;-83
2021/12/25 13:46:04;;;;;;;6.55;1.60;;;11.30;84.70;;;;;;5091354;28;20031;-82
2021/12/25 13:48:39;;;;;;;4.90;1.10;;;11.30;83.40;;;;;;5091700;28;20028;-84
2021/12/25 13:51:06;;;;;;;7.78;1.50;;;11.20;81.10;;;;;;5091779;28;20058;-82
2021/12/25 13:53:32;;;;;;;5.80;1.13;;;11.20;80.40;;;;;;5092299;28;20023;-83
2021/12/25 13:56:07;;;;;;;5.45;1.30;;;11.10;80.10;;;;;;5091419;28;20031;-80
2021/12/25 13:58:33;;;;;;;2.97;1.10;;;11.10;79.90;;;;;;5091306;28;20024;-80
2021/12/25 14:00:59;;;;;;;7.53;1.55;;;11.00;79.40;;;;;;5091126;28;20028;-80
2021/12/25 14:03:26;;;;;;;7.32;1.48;;;11.00;79.20;;;;;;5090499;28;20031;-82
2021/12/25 14:05:54;;;;;;;7.95;1.50;;;10.90;79.20;;;;;;5092509;28;20514;-81
2021/12/25 14:08:26;;;;;;;4.20;1.10;;;10.90;79.30;;;;;;5091043;28;20107;-80
2021/12/25 14:10:59;;;;;;;7.97;1.38;;;10.80;78.80;;;;;;5090274;28;20056;-84
2021/12/25 14:13:26;;;;;;;6.03;1.08;;;10.80;78.80;;;;;;5090722;28;20028;-81
2021/12/25 14:15:54;;;;;;;5.53;1.15;;;10.80;78.50;;;;;;5091330;28;20031;-78
2021/12/25 14:18:28;;;;;;;4.22;1.10;;;10.70;78.70;;;;;;5092719;28;20028;-83
2021/12/25 14:21:13;;;;;;;7.90;1.30;;;10.70;78.00;;;;;;5092827;28;20031;-84
2021/12/25 14:23:39;;;;;;;16.30;2.20;;;10.60;77.80;;;;;;5093319;28;20020;-82
2021/12/25 14:26:05;;;;;;;17.15;2.20;;;10.60;78.70;;;;;;5093861;28;20031;-81